createdAt,value
2022-09-28T00:03:21.063Z,100.00
2022-09-28T00:09:21.729Z,100.00
2022-09-28T00:14:24.770Z,100.00
2022-09-28T00:19:37.225Z,100.00
2022-09-28T00:24:53.829Z,100.00
2022-09-28T00:31:37.565Z,100.00
2022-09-28T00:38:00.453Z,100.00
2022-09-28T00:43:28.316Z,100.00
2022-09-28T00:49:50.270Z,100.00
2022-09-28T00:55:03.932Z,100.00
2022-09-28T01:01:05.198Z,100.00
2022-09-28T01:07:55.446Z,100.00
2022-09-28T01:14:36.156Z,100.00
2022-09-28T01:20:57.569Z,100.00
2022-09-28T01:27:09.494Z,100.00
2022-09-28T01:34:02.472Z,100.00
2022-09-28T01:40:28.846Z,100.00
2022-09-28T01:47:41.767Z,100.00
2022-09-28T01:54:50.983Z,100.00
2022-09-28T02:01:54.420Z,100.00
2022-09-28T02:07:53.276Z,100.00
2022-09-28T02:14:37.144Z,100.00
2022-09-28T02:21:01.695Z,100.00
2022-09-28T02:27:34.127Z,100.00
2022-09-28T02:34:05.509Z,100.00
2022-09-28T02:40:23.506Z,100.00
2022-09-28T02:46:29.695Z,100.00
2022-09-28T02:53:09.661Z,100.00
2022-09-28T02:59:58.524Z,100.00
2022-09-28T03:06:18.983Z,100.00
2022-09-28T03:12:27.340Z,100.00
2022-09-28T03:18:22.760Z,100.00
2022-09-28T03:24:04.812Z,100.00
2022-09-28T03:29:59.327Z,100.00
2022-09-28T03:36:12.805Z,100.00
2022-09-28T03:42:59.159Z,100.00
2022-09-28T03:48:50.622Z,100.00
2022-09-28T03:54:49.383Z,100.00
2022-09-28T03:59:54.310Z,100.00
2022-09-28T04:05:17.070Z,100.00
2022-09-28T04:11:53.127Z,100.00
2022-09-28T04:17:49.170Z,100.00
2022-09-28T04:24:10.312Z,100.00
2022-09-28T04:29:54.300Z,100.00
2022-09-28T04:36:06.676Z,100.00
2022-09-28T04:42:39.664Z,100.00
2022-09-28T04:48:33.606Z,100.00
2022-09-28T04:54:48.288Z,100.00
2022-09-28T05:00:36.138Z,100.00
2022-09-28T05:06:24.772Z,100.00
2022-09-28T05:12:11.695Z,100.00
2022-09-28T05:18:25.839Z,100.00
2022-09-28T05:23:58.518Z,100.00
2022-09-28T05:30:26.167Z,100.00
2022-09-28T05:36:49.077Z,100.00
2022-09-28T05:42:22.768Z,100.00
2022-09-28T05:48:02.177Z,100.00
2022-09-28T05:54:58.597Z,100.00
2022-09-28T06:01:25.576Z,99.94
2022-09-28T06:08:07.250Z,99.48
2022-09-28T06:14:41.226Z,98.88
2022-09-28T06:20:45.876Z,99.01
2022-09-28T06:26:18.013Z,98.74
2022-09-28T06:31:47.038Z,98.57
2022-09-28T06:37:58.650Z,98.47
2022-09-28T06:43:21.034Z,98.35
2022-09-28T06:49:43.627Z,98.19
2022-09-28T06:55:54.229Z,96.08
2022-09-28T07:01:56.797Z,95.15
2022-09-28T07:08:50.130Z,94.25
2022-09-28T07:15:14.277Z,94.99
2022-09-28T07:20:44.771Z,93.86
2022-09-28T07:26:18.946Z,93.86
2022-09-28T07:31:53.136Z,93.02
2022-09-28T07:38:44.847Z,92.23
2022-09-28T07:45:29.744Z,89.52
2022-09-28T07:52:13.126Z,89.88
2022-09-28T07:58:16.174Z,90.02
2022-09-28T08:04:09.760Z,88.26
2022-09-28T08:09:39.299Z,88.16
2022-09-28T08:16:20.152Z,86.29
2022-09-28T08:22:12.031Z,86.99
2022-09-28T08:27:28.532Z,86.16
2022-09-28T08:33:18.623Z,85.64
2022-09-28T08:38:59.394Z,84.33
2022-09-28T08:45:35.916Z,83.90
2022-09-28T08:52:32.442Z,82.32
2022-09-28T08:58:42.845Z,79.82
2022-09-28T09:04:17.514Z,77.06
2022-09-28T09:10:03.979Z,76.49
2022-09-28T09:16:14.667Z,77.35
2022-09-28T09:23:00.209Z,78.05
2022-09-28T09:29:18.714Z,78.81
2022-09-28T09:35:55.121Z,77.06
2022-09-28T09:41:51.581Z,74.82
2022-09-28T09:48:09.856Z,74.39
2022-09-28T09:54:36.960Z,73.67
2022-09-28T10:00:59.171Z,74.61
2022-09-28T10:07:48.535Z,74.40
2022-09-28T10:14:01.157Z,74.13
2022-09-28T10:21:13.521Z,72.63
2022-09-28T10:27:14.593Z,74.78
2022-09-28T10:33:14.470Z,72.49
2022-09-28T10:39:24.517Z,73.25
2022-09-28T10:45:43.698Z,70.60
2022-09-28T10:52:14.783Z,68.74
2022-09-28T10:57:39.830Z,69.26
2022-09-28T11:02:44.153Z,66.57
2022-09-28T11:08:19.310Z,66.44
2022-09-28T11:13:35.725Z,64.74
2022-09-28T11:18:41.141Z,65.70
2022-09-28T11:24:35.956Z,66.75
2022-09-28T11:29:46.947Z,65.52
2022-09-28T11:35:16.422Z,66.89
2022-09-28T11:41:09.226Z,67.28
2022-09-28T11:47:00.513Z,67.20
2022-09-28T11:52:14.642Z,66.04
2022-09-28T11:57:36.875Z,62.55
2022-09-28T12:03:33.349Z,62.65
2022-09-28T12:08:46.130Z,63.99
2022-09-28T12:14:46.721Z,62.53
2022-09-28T12:20:27.568Z,64.61
2022-09-28T12:25:39.537Z,63.44
2022-09-28T12:30:47.612Z,63.84
2022-09-28T12:36:09.160Z,64.74
2022-09-28T12:42:07.407Z,64.10
2022-09-28T12:47:28.346Z,65.04
2022-09-28T12:52:53.696Z,64.10
2022-09-28T12:58:36.485Z,65.06
2022-09-28T13:04:29.798Z,64.77
2022-09-28T13:10:35.014Z,65.71
2022-09-28T13:16:09.647Z,66.68
2022-09-28T13:22:04.076Z,67.15
2022-09-28T13:27:19.531Z,67.92
2022-09-28T13:32:46.065Z,68.44
2022-09-28T13:38:49.524Z,69.12
2022-09-28T13:43:58.623Z,69.59
2022-09-28T13:50:00.021Z,69.50
2022-09-28T13:55:39.335Z,70.09
2022-09-28T14:01:09.088Z,70.57
2022-09-28T14:07:33.653Z,71.44
2022-09-28T14:13:17.067Z,72.81
2022-09-28T14:18:55.191Z,73.75
2022-09-28T14:24:54.315Z,74.78
2022-09-28T14:30:48.373Z,75.49
2022-09-28T14:35:58.350Z,75.58
2022-09-28T14:41:57.559Z,75.61
2022-09-28T14:47:33.422Z,76.48
2022-09-28T14:53:20.722Z,77.35
2022-09-28T14:58:27.598Z,77.86
2022-09-28T15:03:36.452Z,78.23
2022-09-28T15:09:36.660Z,78.92
2022-09-28T15:15:37.251Z,79.45
2022-09-28T15:20:48.082Z,79.64
2022-09-28T15:26:03.980Z,79.37
2022-09-28T15:31:41.666Z,79.49
2022-09-28T15:37:45.973Z,79.95
2022-09-28T15:43:41.509Z,81.05
2022-09-28T15:48:59.665Z,82.40
2022-09-28T15:54:32.697Z,83.12
2022-09-28T15:59:59.611Z,83.83
2022-09-28T16:06:17.653Z,84.09
2022-09-28T16:11:38.907Z,84.43
2022-09-28T16:16:55.193Z,84.77
2022-09-28T16:22:11.159Z,85.48
2022-09-28T16:28:02.573Z,85.62
2022-09-28T16:34:19.736Z,85.92
2022-09-28T16:39:43.229Z,86.25
2022-09-28T16:45:21.659Z,86.84
2022-09-28T16:50:26.430Z,87.05
2022-09-28T16:55:53.368Z,87.72
2022-09-28T17:01:20.897Z,88.10
2022-09-28T17:06:36.701Z,87.87
2022-09-28T17:12:02.602Z,87.57
2022-09-28T17:17:10.579Z,87.50
2022-09-28T17:23:24.756Z,87.49
2022-09-28T17:29:01.570Z,87.07
2022-09-28T17:34:55.966Z,86.97
2022-09-28T17:40:51.159Z,87.19
2022-09-28T17:46:47.652Z,87.62
2022-09-28T17:52:32.254Z,87.60
2022-09-28T17:58:42.509Z,87.95
2022-09-28T18:05:11.473Z,88.31
2022-09-28T18:11:47.037Z,88.74
2022-09-28T18:18:19.764Z,88.87
2022-09-28T18:24:15.509Z,89.14
2022-09-28T18:30:21.163Z,89.34
2022-09-28T18:36:53.501Z,89.60
2022-09-28T18:42:32.276Z,89.89
2022-09-28T18:47:59.777Z,90.18
2022-09-28T18:53:34.217Z,90.53
2022-09-28T18:58:58.501Z,90.49
2022-09-28T19:04:42.579Z,91.00
2022-09-28T19:10:22.971Z,91.20
2022-09-28T19:16:28.759Z,91.41
2022-09-28T19:21:47.259Z,91.57
2022-09-28T19:27:11.189Z,91.88
2022-09-28T19:32:42.955Z,92.06
2022-09-28T19:37:46.765Z,92.30
2022-09-28T19:42:56.547Z,92.69
2022-09-28T19:47:59.559Z,92.64
2022-09-28T19:53:30.362Z,92.89
2022-09-28T19:58:52.644Z,92.81
2022-09-28T20:04:16.508Z,92.95
2022-09-28T20:09:42.335Z,93.32
2022-09-28T20:14:45.176Z,93.46
2022-09-28T20:19:51.825Z,93.83
2022-09-28T20:25:24.806Z,93.73
2022-09-28T20:30:27.308Z,94.03
2022-09-28T20:35:57.677Z,94.15
2022-09-28T20:41:36.861Z,94.24
2022-09-28T20:47:18.628Z,94.58
2022-09-28T20:53:00.196Z,94.72
2022-09-28T20:58:54.309Z,94.58
2022-09-28T21:04:37.168Z,94.54
2022-09-28T21:11:10.682Z,94.38
2022-09-28T21:16:47.990Z,94.32
2022-09-28T21:22:10.412Z,94.23
2022-09-28T21:27:46.099Z,94.23
2022-09-28T21:33:28.936Z,94.16
2022-09-28T21:39:11.667Z,93.72
2022-09-28T21:45:25.017Z,93.32
2022-09-28T21:50:28.383Z,93.19
2022-09-28T21:56:31.601Z,92.94
2022-09-28T22:01:44.351Z,92.93
2022-09-28T22:07:32.297Z,92.85
2022-09-28T22:13:15.020Z,92.94
2022-09-28T22:18:54.349Z,93.09
2022-09-28T22:26:10.142Z,92.89
2022-09-28T22:32:26.614Z,92.84
2022-09-28T22:38:58.835Z,92.58
2022-09-28T22:45:22.022Z,92.75
2022-09-28T22:52:25.349Z,93.00
2022-09-28T22:58:26.792Z,92.92
2022-09-28T23:04:50.050Z,93.14
2022-09-28T23:11:43.477Z,93.15
2022-09-28T23:18:21.630Z,93.61
2022-09-28T23:24:30.859Z,93.58
2022-09-28T23:31:12.017Z,93.80
2022-09-28T23:37:48.409Z,93.82
2022-09-28T23:43:46.978Z,93.90
2022-09-28T23:49:53.169Z,93.98
2022-09-28T23:55:26.019Z,94.18
